Time;durP1;ratioP1;P1;durP2;ratioP2;P2;SDS_P1;SDS_P2;PMS_P1;PMS_P2;Temp;Humidity;BMP_temperature;BMP_pressure;BME280_temperature;BME280_humidity;BME280_pressure;Samples;Min_cycle;Max_cycle;Signal;HPM_P1;HPM_P2
2023/03/30 00:00:47;;;;;;;17.88;5.75;;;;;;;10.14;100.00;98638.59;5010012;28;20100;-93
2023/03/30 00:03:18;;;;;;;21.60;6.65;;;;;;;9.77;100.00;98554.06;5017353;28;20053;-91
2023/03/30 00:05:48;;;;;;;22.15;6.45;;;;;;;9.64;100.00;98536.59;5006077;28;20043;-91
2023/03/30 00:08:17;;;;;;;19.08;6.40;;;;;;;10.14;100.00;98578.47;4997163;28;20077;-93
2023/03/30 00:10:45;;;;;;;16.35;5.47;;;;;;;10.38;100.00;98646.56;5005445;28;20058;-91
2023/03/30 00:13:12;;;;;;;19.40;5.95;;;;;;;9.94;100.00;98590.31;4999670;28;20061;-93
2023/03/30 00:15:39;;;;;;;16.58;4.13;;;;;;;10.58;100.00;98636.47;5012294;28;20073;-93
2023/03/30 00:18:07;;;;;;;18.10;5.22;;;;;;;10.09;100.00;98638.09;4996714;28;20062;-92
2023/03/30 00:20:36;;;;;;;15.10;4.78;;;;;;;10.31;100.00;98590.41;5000324;28;20054;-93
2023/03/30 00:23:03;;;;;;;14.80;4.45;;;;;;;10.44;100.00;98580.72;5032529;28;20046;-92
2023/03/30 00:25:30;;;;;;;23.85;7.30;;;;;;;10.45;100.00;98558.03;5011399;28;20058;-93
2023/03/30 00:27:57;;;;;;;21.70;5.70;;;;;;;10.42;100.00;98585.22;4996578;28;20066;-91
2023/03/30 00:30:23;;;;;;;19.02;6.55;;;;;;;10.21;100.00;98571.03;5003594;28;20443;-93
2023/03/30 00:32:50;;;;;;;16.65;5.53;;;;;;;10.44;100.00;98588.56;5017873;28;20050;-93
2023/03/30 00:35:18;;;;;;;19.83;4.50;;;;;;;10.47;100.00;98592.75;5017472;28;20050;-93
2023/03/30 00:37:48;;;;;;;12.85;3.95;;;;;;;10.27;100.00;98622.91;5017730;28;20046;-92
2023/03/30 00:40:19;;;;;;;10.10;3.38;;;;;;;10.35;100.00;98623.22;5008098;28;20078;-93
2023/03/30 00:42:47;;;;;;;14.85;3.35;;;;;;;10.19;100.00;98588.59;5017143;28;20056;-93
2023/03/30 00:45:26;;;;;;;13.68;2.90;;;;;;;10.13;100.00;98589.88;5016767;28;20053;-92
2023/03/30 00:48:17;;;;;;;15.30;3.00;;;;;;;10.50;100.00;98636.16;5015773;28;20054;-92
2023/03/30 00:51:12;;;;;;;7.30;2.80;;;;;;;10.30;100.00;98627.09;5031765;28;20504;-92
2023/03/30 00:53:49;;;;;;;14.45;3.25;;;;;;;9.89;100.00;98584.56;5011398;28;20054;-91
2023/03/30 00:56:21;;;;;;;11.75;2.95;;;;;;;10.13;100.00;98623.03;4999901;28;20504;-91
2023/03/30 00:58:49;;;;;;;8.40;2.13;;;;;;;9.83;100.00;98616.38;4997030;28;20073;-92
2023/03/30 01:01:24;;;;;;;11.32;2.92;;;;;;;9.60;100.00;98604.88;4998313;28;20050;-92
2023/03/30 01:03:52;;;;;;;9.32;3.03;;;;;;;9.57;100.00;98639.84;4996550;28;20491;-92
2023/03/30 01:06:23;;;;;;;9.93;2.40;;;;;;;8.98;100.00;98556.72;5010549;28;20404;-92
2023/03/30 01:08:51;;;;;;;10.00;2.72;;;;;;;9.49;100.00;98629.06;5015864;28;20136;-93
2023/03/30 01:11:20;;;;;;;8.95;2.63;;;;;;;8.93;100.00;98551.78;5008578;28;20060;-92
2023/03/30 01:13:49;;;;;;;11.23;3.45;;;;;;;9.80;100.00;98632.25;5015874;28;20073;-92
2023/03/30 01:16:34;;;;;;;8.98;2.20;;;;;;;9.95;100.00;98625.13;5005717;28;20092;-91
2023/03/30 01:19:15;;;;;;;13.20;3.15;;;;;;;10.12;100.00;98629.22;4996286;28;20061;-92
2023/03/30 01:22:19;;;;;;;12.75;2.50;;;;;;;10.21;100.00;98625.94;4997452;28;20058;-91
2023/03/30 01:25:01;;;;;;;14.10;4.47;;;;;;;10.01;100.00;98620.31;4996702;28;20051;-92
2023/03/30 01:27:50;;;;;;;13.65;3.00;;;;;;;9.56;100.00;98583.34;4996627;28;20057;-91
2023/03/30 01:30:48;;;;;;;10.75;3.20;;;;;;;9.50;100.00;98626.34;4995878;28;20054;-93
2023/03/30 01:33:27;;;;;;;14.50;3.70;;;;;;;9.13;100.00;98579.19;4997473;28;20050;-90
2023/03/30 01:36:29;;;;;;;12.40;3.40;;;;;;;9.07;100.00;98582.22;5018483;28;20047;-94
2023/03/30 01:39:27;;;;;;;18.27;3.92;;;;;;;9.35;100.00;98616.09;5000695;28;20069;-93
2023/03/30 01:41:57;;;;;;;15.98;4.20;;;;;;;9.15;100.00;98609.59;5018315;28;20054;-93
2023/03/30 01:44:42;;;;;;;16.08;4.38;;;;;;;9.22;100.00;98609.06;5019453;28;20100;-91
2023/03/30 01:47:27;;;;;;;17.02;4.25;;;;;;;8.91;100.00;98569.34;5019499;28;20049;-91
2023/03/30 01:50:04;;;;;;;15.38;4.57;;;;;;;8.64;100.00;98538.06;5031345;28;20065;-93
2023/03/30 01:52:40;;;;;;;10.85;3.90;;;;;;;8.00;100.00;98454.31;4996695;28;20050;-92
2023/03/30 01:55:25;;;;;;;13.00;3.92;;;;;;;8.16;100.00;98480.22;4996858;28;20062;-91
2023/03/30 01:57:57;;;;;;;11.07;3.10;;;;;;;8.98;100.00;98619.38;4996963;28;20476;-92
2023/03/30 02:00:26;;;;;;;11.65;3.33;;;;;;;8.41;100.00;98531.69;4998214;28;20439;-92
2023/03/30 02:02:59;;;;;;;11.20;3.00;;;;;;;8.46;100.00;98531.41;5017632;28;20062;-93
2023/03/30 02:05:29;;;;;;;15.52;3.50;;;;;;;8.22;100.00;98474.66;5018225;28;20077;-93
2023/03/30 02:08:02;;;;;;;13.20;3.60;;;;;;;8.48;100.00;98521.69;5017630;28;20061;-92
2023/03/30 02:10:32;;;;;;;12.95;3.53;;;;;;;7.75;100.00;98445.44;5017617;28;20053;-93
2023/03/30 02:13:00;;;;;;;10.30;3.00;;;;;;;8.72;100.00;98600.16;5009058;28;20104;-93
2023/03/30 02:15:36;;;;;;;13.82;3.30;;;;;;;8.64;100.00;98586.75;5012302;28;20157;-93
2023/03/30 02:18:03;;;;;;;9.93;2.92;;;;;;;8.25;100.00;98544.84;5017026;28;20059;-94
2023/03/30 02:20:32;;;;;;;7.43;2.20;;;;;;;8.46;100.00;98576.56;5008746;28;20050;-94
2023/03/30 02:23:00;;;;;;;5.55;1.85;;;;;;;8.45;100.00;98579.28;4996697;28;20070;-92
2023/03/30 02:25:27;;;;;;;10.02;2.58;;;;;;;8.41;100.00;98569.94;4995934;28;20066;-93
2023/03/30 02:27:55;;;;;;;8.70;2.58;;;;;;;8.38;100.00;98607.47;4996257;28;20105;-93
2023/03/30 02:30:22;;;;;;;9.48;2.28;;;;;;;8.48;100.00;98610.38;5001747;28;20442;-92
2023/03/30 02:32:53;;;;;;;9.63;2.42;;;;;;;8.43;100.00;98621.09;5015492;28;20049;-92
2023/03/30 02:35:37;;;;;;;7.68;2.03;;;;;;;8.47;100.00;98621.75;5015485;28;20057;-93
2023/03/30 02:38:31;;;;;;;10.43;3.05;;;;;;;8.61;100.00;98642.59;5020024;28;20049;-94
2023/03/30 02:41:23;;;;;;;11.80;2.70;;;;;;;8.06;100.00;98557.34;5009142;28;20097;-93
2023/03/30 02:44:09;;;;;;;9.38;2.90;;;;;;;8.62;100.00;98646.03;5016750;28;20046;-93
2023/03/30 02:47:09;;;;;;;9.60;2.67;;;;;;;8.57;100.00;98643.72;5000302;28;20054;-91
2023/03/30 02:49:54;;;;;;;9.02;2.80;;;;;;;7.74;100.00;98500.25;4984154;28;20054;-93
2023/03/30 02:52:46;;;;;;;12.35;2.88;;;;;;;8.70;100.00;98642.00;4999775;28;20062;-93
2023/03/30 02:55:19;;;;;;;7.70;2.67;;;;;;;8.79;100.00;98639.75;4999890;28;20050;-91
2023/03/30 02:58:00;;;;;;;10.15;2.17;;;;;;;8.72;100.00;98640.13;5000627;28;20081;-92
2023/03/30 03:00:50;;;;;;;8.77;2.20;;;;;;;8.78;100.00;98638.06;5003755;28;20078;-94
2023/03/30 03:03:23;;;;;;;11.27;2.15;;;;;;;8.39;100.00;98577.03;5033343;28;20484;-93
2023/03/30 03:05:52;;;;;;;;;;;;;;;8.91;100.00;98634.56;5026976;28;20110;-91
2023/03/30 03:08:24;;;;;;;8.85;2.20;;;;;;;8.81;100.00;98646.53;5026163;28;19921;-92
2023/03/30 03:10:51;;;;;;;7.72;2.13;;;;;;;8.55;100.00;98599.47;5019667;28;20054;-92
2023/03/30 03:13:20;;;;;;;7.93;2.13;;;;;;;8.54;100.00;98596.94;5019522;28;20050;-92
2023/03/30 03:15:48;;;;;;;10.48;2.10;;;;;;;8.49;100.00;98593.78;5010552;28;20382;-92
2023/03/30 03:18:15;;;;;;;7.72;2.00;;;;;;;8.59;100.00;98625.34;4997833;28;20062;-91
2023/03/30 03:20:42;;;;;;;9.68;3.25;;;;;;;8.09;100.00;98558.00;4998184;28;20452;-92
2023/03/30 03:23:08;;;;;;;10.07;2.42;;;;;;;8.32;100.00;98598.28;4997573;28;20052;-92
2023/03/30 03:25:35;;;;;;;10.40;2.70;;;;;;;8.31;100.00;98619.22;4997853;28;20057;-93
2023/03/30 03:28:02;;;;;;;6.82;2.13;;;;;;;8.38;100.00;98606.66;4998144;28;20061;-91
2023/03/30 03:30:29;;;;;;;5.18;1.90;;;;;;;7.74;100.00;98521.91;4999764;28;20050;-91
2023/03/30 03:32:56;;;;;;;7.10;1.90;;;;;;;7.96;100.00;98541.44;4998797;28;20109;-92
2023/03/30 03:35:23;;;;;;;7.00;1.80;;;;;;;8.22;100.00;98598.94;5000938;28;20054;-93
2023/03/30 03:37:50;;;;;;;5.75;1.88;;;;;;;7.71;100.00;98529.91;5000960;28;20046;-92
2023/03/30 03:40:17;;;;;;;8.57;2.03;;;;;;;7.27;100.00;98481.34;5000341;28;20352;-93
2023/03/30 03:42:44;;;;;;;6.35;1.83;;;;;;;7.65;100.00;98552.88;4999646;28;20050;-92
2023/03/30 03:45:11;;;;;;;8.35;2.13;;;;;;;7.85;100.00;98575.97;5000339;28;20053;-92
2023/03/30 03:47:38;;;;;;;6.85;1.92;;;;;;;7.22;100.00;98476.44;5000104;28;20174;-92
2023/03/30 03:50:08;;;;;;;8.52;1.85;;;;;;;8.02;100.00;98619.25;4999890;28;20058;-93
2023/03/30 03:52:36;;;;;;;5.72;1.80;;;;;;;7.52;100.00;98569.25;5001841;28;20046;-94
2023/03/30 03:55:03;;;;;;;7.95;2.10;;;;;;;7.77;100.00;98625.09;5002646;28;20050;-93
2023/03/30 03:57:30;;;;;;;8.05;2.67;;;;;;;7.53;100.00;98590.94;5002036;28;20046;-94
2023/03/30 03:59:58;;;;;;;5.47;1.95;;;;;;;6.84;100.00;98489.13;5004932;28;20085;-93
2023/03/30 04:02:26;;;;;;;5.15;1.73;;;;;;;7.72;100.00;98661.00;5006485;28;20054;-94
2023/03/30 04:04:54;;;;;;;6.53;2.83;;;;;;;7.14;100.00;98577.56;5007180;28;20056;-94
2023/03/30 04:07:24;;;;;;;5.25;1.63;;;;;;;7.72;100.00;98661.00;5038978;28;20050;-94
2023/03/30 04:09:51;;;;;;;9.50;2.17;;;;;;;7.02;100.00;98571.28;5023440;28;20137;-94
2023/03/30 04:12:19;;;;;;;6.03;1.80;;;;;;;7.12;100.00;98573.34;5007888;28;20522;-92
2023/03/30 04:14:46;;;;;;;4.07;1.50;;;;;;;7.68;100.00;98664.72;4998975;28;20054;-93
2023/03/30 04:17:13;;;;;;;5.50;1.77;;;;;;;7.29;100.00;98595.81;4999600;28;20054;-93
2023/03/30 04:19:40;;;;;;;5.28;2.00;;;;;;;7.59;100.00;98646.06;5000307;28;20058;-92
2023/03/30 04:22:07;;;;;;;7.00;1.85;;;;;;;7.47;100.00;98626.00;5000583;28;20124;-92
2023/03/30 04:24:34;;;;;;;6.00;1.55;;;;;;;7.51;100.00;98624.88;4998952;28;20100;-92
2023/03/30 04:27:02;;;;;;;5.88;1.50;;;;;;;7.34;100.00;98604.19;4999667;28;20050;-92
2023/03/30 04:29:29;;;;;;;3.20;1.40;;;;;;;6.82;100.00;98522.19;5014800;28;20416;-92
2023/03/30 04:32:01;;;;;;;3.95;1.50;;;;;;;7.48;100.00;98625.03;5001069;28;20493;-91
2023/03/30 04:34:29;;;;;;;5.53;1.70;;;;;;;7.10;100.00;98560.44;5015451;28;20053;-92
2023/03/30 04:36:56;;;;;;;4.75;1.40;;;;;;;6.86;100.00;98521.06;5016026;28;20045;-91
2023/03/30 04:39:23;;;;;;;6.75;1.60;;;;;;;7.48;100.00;98634.63;5016677;28;20050;-92
2023/03/30 04:41:53;;;;;;;4.82;1.50;;;;;;;7.19;100.00;98593.75;5015029;28;20491;-92
2023/03/30 04:44:20;;;;;;;7.15;1.88;;;;;;;7.39;100.00;98656.84;5016839;28;20447;-93
2023/03/30 04:46:47;;;;;;;5.00;1.65;;;;;;;7.15;100.00;98620.03;5016565;28;20049;-93
2023/03/30 04:49:14;;;;;;;6.82;1.80;;;;;;;7.26;100.00;98669.72;5016477;28;20103;-91
2023/03/30 04:51:42;;;;;;;7.32;1.90;;;;;;;7.09;100.00;98641.22;5006560;28;20061;-92
2023/03/30 04:54:08;;;;;;;6.68;2.20;;;;;;;6.95;100.00;98605.56;4996278;28;20054;-92
2023/03/30 04:56:35;;;;;;;4.47;1.50;;;;;;;7.14;100.00;98670.41;5015397;28;20049;-91
2023/03/30 04:59:02;;;;;;;6.60;1.95;;;;;;;6.79;100.00;98610.78;5016049;28;20100;-91
2023/03/30 05:01:29;;;;;;;4.35;1.60;;;;;;;6.51;100.00;98580.28;5002950;28;20069;-90
2023/03/30 05:03:56;;;;;;;4.43;1.67;;;;;;;6.26;100.00;98537.44;4995966;28;20413;-91
2023/03/30 05:06:23;;;;;;;7.88;1.83;;;;;;;6.24;100.00;98549.69;5012681;28;20049;-91
2023/03/30 05:08:50;;;;;;;8.00;1.70;;;;;;;6.79;100.00;98648.03;5014436;28;20080;-89
2023/03/30 05:11:17;;;;;;;6.57;1.80;;;;;;;6.67;100.00;98651.31;5007897;28;20058;-90
2023/03/30 05:13:43;;;;;;;5.57;1.60;;;;;;;6.45;100.00;98602.25;5006863;28;20042;-91
2023/03/30 05:16:10;;;;;;;4.78;1.40;;;;;;;6.55;100.00;98624.22;5002007;28;20443;-90
2023/03/30 05:18:38;;;;;;;6.38;1.40;;;;;;;6.54;100.00;98614.75;5010544;28;20050;-91
2023/03/30 05:21:05;;;;;;;6.25;1.70;;;;;;;6.45;100.00;98610.88;5022338;28;20049;-90
2023/03/30 05:23:32;;;;;;;7.68;2.15;;;;;;;6.31;100.00;98583.97;5011526;28;20484;-89
2023/03/30 05:25:58;;;;;;;6.47;1.65;;;;;;;6.44;100.00;98619.59;5012587;28;20053;-90
2023/03/30 05:28:25;;;;;;;6.30;3.40;;;;;;;6.72;100.00;98674.47;5014358;28;20058;-90
2023/03/30 05:30:55;;;;;;;5.57;1.58;;;;;;;6.36;100.00;98601.00;5008825;28;20053;-88
2023/03/30 05:33:23;;;;;;;4.88;1.77;;;;;;;6.40;100.00;98602.50;5003652;28;20049;-89
2023/03/30 05:35:50;;;;;;;6.55;1.90;;;;;;;6.69;100.00;98665.06;5007945;28;20053;-88
2023/03/30 05:38:17;;;;;;;7.53;1.65;;;;;;;6.24;100.00;98612.88;5008890;28;20046;-89
2023/03/30 05:40:44;;;;;;;5.25;1.65;;;;;;;6.18;100.00;98604.56;5004628;28;20499;-88
2023/03/30 05:43:11;;;;;;;6.65;1.75;;;;;;;6.61;100.00;98675.06;5000274;28;20045;-92
2023/03/30 05:45:37;;;;;;;5.80;1.33;;;;;;;6.35;100.00;98638.28;5014697;28;20065;-91
2023/03/30 05:48:05;;;;;;;4.10;1.55;;;;;;;5.46;100.00;98508.75;5015987;28;20046;-92
2023/03/30 05:50:32;;;;;;;4.70;1.40;;;;;;;5.98;100.00;98572.69;5009045;28;20062;-91
2023/03/30 05:52:59;;;;;;;3.53;1.30;;;;;;;6.61;100.00;98683.69;5013242;28;20068;-92
2023/03/30 05:55:26;;;;;;;5.30;1.20;;;;;;;5.91;100.00;98560.94;5013641;28;20077;-91
2023/03/30 05:57:53;;;;;;;5.75;1.63;;;;;;;6.65;100.00;98669.59;5020016;28;20046;-90
2023/03/30 06:00:21;;;;;;;4.30;1.30;;;;;;;6.47;100.00;98650.63;5005347;28;20050;-90
2023/03/30 06:02:48;;;;;;;6.30;2.20;;;;;;;6.58;100.00;98681.25;5008698;28;20054;-90
2023/03/30 06:05:16;;;;;;;3.80;1.65;;;;;;;6.17;100.00;98627.13;5011243;28;20399;-89
2023/03/30 06:07:44;;;;;;;4.78;1.80;;;;;;;6.25;100.00;98658.75;5011060;28;20046;-90
2023/03/30 06:10:11;;;;;;;9.10;2.25;;;;;;;6.37;100.00;98682.41;5010529;28;20041;-90
2023/03/30 06:12:38;;;;;;;5.45;2.20;;;;;;;6.32;100.00;98684.41;5023443;28;20049;-90
2023/03/30 06:15:08;;;;;;;5.97;1.80;;;;;;;6.03;100.00;98637.41;5028173;28;20045;-90
2023/03/30 06:17:36;;;;;;;7.15;2.35;;;;;;;6.49;100.00;98699.13;5015330;28;20096;-88
2023/03/30 06:20:10;;;;;;;6.65;1.63;;;;;;;6.17;100.00;98644.47;5012201;28;20057;-90
2023/03/30 06:22:40;;;;;;;5.53;2.00;;;;;;;6.07;100.00;98634.59;4998004;28;20050;-88
2023/03/30 06:25:08;;;;;;;5.35;1.80;;;;;;;6.21;100.00;98653.78;5008186;28;20050;-88
2023/03/30 06:27:36;;;;;;;7.25;1.88;;;;;;;6.22;100.00;98655.47;5014799;28;20045;-88
2023/03/30 06:30:04;;;;;;;6.05;1.90;;;;;;;6.46;100.00;98635.97;5010639;28;20052;-89
2023/03/30 06:32:30;;;;;;;6.72;2.10;;;;;;;6.39;100.00;98658.03;5009456;28;20539;-89
2023/03/30 06:34:57;;;;;;;4.45;1.65;;;;;;;6.45;100.00;98668.06;5021814;28;20480;-88
2023/03/30 06:37:24;;;;;;;6.80;2.20;;;;;;;6.08;100.00;98620.66;5030461;28;20046;-89
2023/03/30 06:39:51;;;;;;;8.20;2.08;;;;;;;6.27;100.00;98677.69;5014659;28;20045;-88
2023/03/30 06:42:18;;;;;;;5.35;1.77;;;;;;;6.43;100.00;98687.28;5011341;28;20048;-88
2023/03/30 06:44:44;;;;;;;6.05;2.17;;;;;;;6.47;100.00;98684.44;5015478;28;20116;-88
2023/03/30 06:47:15;;;;;;;6.97;3.10;;;;;;;6.45;100.00;98659.44;5015452;28;20045;-88
2023/03/30 06:49:42;;;;;;;5.50;2.00;;;;;;;6.75;100.00;98684.72;5010051;28;20050;-88
2023/03/30 06:52:10;;;;;;;9.55;2.20;;;;;;;6.99;100.00;98696.38;5001629;28;20061;-89
2023/03/30 06:54:36;;;;;;;6.60;2.28;;;;;;;6.95;100.00;98665.41;5027165;28;20054;-87
2023/03/30 06:57:03;;;;;;;5.97;1.80;;;;;;;6.86;100.00;98645.94;5012692;28;20046;-89
2023/03/30 06:59:31;;;;;;;4.25;1.67;;;;;;;7.12;100.00;98682.66;5023405;28;20077;-88
2023/03/30 07:02:00;;;;;;;6.72;2.42;;;;;;;7.35;100.00;98694.41;5008477;28;20514;-88
2023/03/30 07:04:27;;;;;;;9.88;2.88;;;;;;;8.69;100.00;98687.31;5000673;28;20058;-89
2023/03/30 07:06:56;;;;;;;10.75;3.53;;;;;;;9.20;100.00;98678.00;5011908;28;20092;-89
2023/03/30 07:09:23;;;;;;;10.73;3.50;;;;;;;9.89;100.00;98723.94;5029780;28;20052;-88
2023/03/30 07:11:51;;;;;;;5.78;2.40;;;;;;;10.52;100.00;98734.56;5010234;28;20534;-88
2023/03/30 07:14:21;;;;;;;7.05;2.58;;;;;;;10.38;100.00;98708.53;5003338;28;20478;-90
2023/03/30 07:16:48;;;;;;;7.10;2.30;;;;;;;10.67;100.00;98711.72;5016700;28;20058;-90
2023/03/30 07:19:15;;;;;;;7.55;2.20;;;;;;;10.88;100.00;98716.38;5027868;28;20537;-89
2023/03/30 07:21:42;;;;;;;6.90;1.70;;;;;;;10.53;100.00;98694.34;5002684;28;20444;-89
2023/03/30 07:24:09;;;;;;;4.53;1.75;;;;;;;10.23;100.00;98698.16;5013446;28;20049;-90
2023/03/30 07:26:35;;;;;;;6.03;2.17;;;;;;;10.53;100.00;98745.84;5021518;28;20100;-89
2023/03/30 07:29:04;;;;;;;7.70;2.13;;;;;;;10.16;100.00;98690.81;4999539;28;20081;-90
2023/03/30 07:31:31;;;;;;;7.47;2.35;;;;;;;10.45;100.00;98705.38;5010115;28;20053;-89
2023/03/30 07:33:57;;;;;;;5.97;1.98;;;;;;;10.96;100.00;98706.19;5012191;28;20061;-89
2023/03/30 07:36:24;;;;;;;9.82;2.15;;;;;;;10.76;100.00;98705.00;5002345;28;20053;-89
2023/03/30 07:38:51;;;;;;;6.65;2.08;;;;;;;10.53;100.00;98685.69;5015156;28;20112;-89
2023/03/30 07:41:18;;;;;;;10.23;2.25;;;;;;;10.85;100.00;98737.53;5011239;28;20045;-90
2023/03/30 07:43:45;;;;;;;7.45;2.13;;;;;;;11.06;100.00;98722.91;5015337;28;20062;-90
2023/03/30 07:46:12;;;;;;;6.32;2.10;;;;;;;10.83;100.00;98712.28;5029801;28;20515;-90
2023/03/30 07:48:39;;;;;;;8.32;2.00;;;;;;;10.39;100.00;98703.19;5014315;28;20050;-89
2023/03/30 07:51:12;;;;;;;6.15;1.88;;;;;;;10.55;100.00;98696.88;5006027;28;20049;-89
2023/03/30 07:53:39;;;;;;;5.55;1.83;;;;;;;10.81;100.00;98702.88;5027148;28;20060;-89
2023/03/30 07:56:06;;;;;;;9.70;1.98;;;;;;;11.36;100.00;98760.94;5008639;28;20060;-89
2023/03/30 07:58:33;;;;;;;6.35;1.70;;;;;;;11.21;100.00;98705.28;5014578;28;20049;-90
2023/03/30 08:01:01;;;;;;;8.15;1.60;;;;;;;11.61;100.00;98735.56;5007311;28;20058;-90
2023/03/30 08:03:30;;;;;;;5.75;1.60;;;;;;;11.50;100.00;98711.00;5012574;28;20432;-90
2023/03/30 08:05:59;;;;;;;5.00;1.30;;;;;;;11.95;100.00;98713.78;5025048;28;20138;-89
2023/03/30 08:08:26;;;;;;;10.10;1.77;;;;;;;12.26;100.00;98702.75;5010663;28;20691;-89
2023/03/30 08:10:53;;;;;;;7.90;1.70;;;;;;;12.51;100.00;98738.44;5011052;28;20054;-89
2023/03/30 08:13:20;;;;;;;6.75;1.48;;;;;;;12.68;100.00;98766.00;5008890;28;20050;-90
2023/03/30 08:15:49;;;;;;;5.80;1.40;;;;;;;12.18;100.00;98740.03;5015006;28;20109;-89
2023/03/30 08:18:16;;;;;;;7.97;1.42;;;;;;;12.18;100.00;98752.34;5015100;28;20605;-88
2023/03/30 08:20:43;;;;;;;7.45;1.83;;;;;;;12.30;100.00;98769.78;5024063;28;20381;-86
2023/03/30 08:23:11;;;;;;;5.28;1.38;;;;;;;12.23;100.00;98789.56;5005675;28;20108;-86
2023/03/30 08:25:37;;;;;;;5.85;1.40;;;;;;;11.79;100.00;98728.97;5012265;28;20541;-85
2023/03/30 08:28:04;;;;;;;5.43;1.52;;;;;;;11.76;100.00;98737.06;5002122;28;20097;-85
2023/03/30 08:30:34;;;;;;;8.25;1.65;;;;;;;11.92;100.00;98782.22;5007717;28;20484;-86
2023/03/30 08:33:01;;;;;;;7.30;2.05;;;;;;;11.43;100.00;98746.47;5000358;28;20058;-85
2023/03/30 08:35:28;;;;;;;5.78;1.67;;;;;;;11.23;100.00;98766.25;5011801;28;20057;-86
2023/03/30 08:37:55;;;;;;;14.40;2.08;;;;;;;10.88;100.00;98773.97;5011564;28;20400;-86
2023/03/30 08:40:22;;;;;;;8.45;1.73;;;;;;;10.73;100.00;98745.31;5007357;28;20067;-85
2023/03/30 08:42:58;;;;;;;6.25;1.60;;;;;;;10.91;100.00;98810.44;5024956;28;20053;-86
2023/03/30 08:45:32;;;;;;;4.47;1.52;;;;;;;10.51;100.00;98777.34;5005507;28;20101;-86
2023/03/30 08:47:59;;;;;;;6.68;2.05;;;;;;;10.41;100.00;98800.72;5014231;28;20061;-85
2023/03/30 08:50:33;;;;;;;3.10;1.20;;;;;;;10.57;100.00;98807.50;5011872;28;20137;-86
2023/03/30 08:53:01;;;;;;;4.47;1.50;;;;;;;10.51;100.00;98766.06;5010091;28;20085;-85
2023/03/30 08:56:06;;;;;;;6.30;1.85;;;;;;;10.86;100.00;98789.78;5000442;28;20050;-86
2023/03/30 08:58:46;;;;;;;5.90;1.88;;;;;;;11.03;100.00;98817.44;5001702;28;20042;-85
2023/03/30 09:01:33;;;;;;;7.10;1.90;;;;;;;11.31;100.00;98813.66;5008305;28;20112;-85
2023/03/30 09:04:19;;;;;;;6.28;2.10;;;;;;;11.21;100.00;98766.34;5007352;28;20049;-85
2023/03/30 09:06:52;;;;;;;8.88;3.00;;;;;;;11.63;100.00;98804.44;4998325;28;20659;-86
2023/03/30 09:09:22;;;;;;;8.25;2.60;;;;;;;11.99;100.00;98816.69;5003942;28;20038;-86
2023/03/30 09:11:56;;;;;;;10.95;4.00;;;;;;;11.83;100.00;98784.63;5003080;28;20054;-86
2023/03/30 09:14:52;;;;;;;9.73;3.75;;;;;;;11.74;100.00;98792.25;5012575;28;20100;-85
2023/03/30 09:17:24;;;;;;;10.77;3.00;;;;;;;12.01;100.00;98812.16;5011276;28;20480;-85
2023/03/30 09:19:59;;;;;;;8.60;2.75;;;;;;;11.96;100.00;98788.88;5004442;28;20174;-85
2023/03/30 09:22:33;;;;;;;11.43;3.85;;;;;;;11.83;100.00;98789.88;4999075;28;20132;-85
2023/03/30 09:25:00;;;;;;;10.93;3.80;;;;;;;11.59;100.00;98778.44;5011486;28;20061;-85
2023/03/30 09:27:32;;;;;;;11.18;3.38;;;;;;;11.49;100.00;98823.78;4998099;28;20574;-85
2023/03/30 09:30:08;;;;;;;8.18;2.50;;;;;;;11.46;100.00;98821.41;5024500;28;20475;-85
2023/03/30 09:32:45;;;;;;;7.35;2.22;;;;;;;11.21;100.00;98778.63;4993342;28;20377;-86
2023/03/30 09:35:12;;;;;;;7.85;2.15;;;;;;;11.53;100.00;98815.59;5004851;28;20064;-86
2023/03/30 09:37:38;;;;;;;13.65;2.40;;;;;;;11.74;100.00;98818.47;5007836;28;20050;-85
2023/03/30 09:40:33;;;;;;;9.32;1.92;;;;;;;11.77;100.00;98852.31;5002834;28;20046;-86
2023/03/30 09:43:25;;;;;;;5.88;1.60;;;;;;;12.01;100.00;98837.56;4993284;28;20050;-86
2023/03/30 09:45:55;;;;;;;7.30;2.00;;;;;;;12.11;100.00;98807.06;5001431;28;20480;-86
2023/03/30 09:48:22;;;;;;;8.00;2.30;;;;;;;11.76;100.00;98774.59;5015881;28;20135;-86
2023/03/30 09:50:49;;;;;;;6.70;2.10;;;;;;;11.82;100.00;98770.69;5007897;28;20042;-85
2023/03/30 09:53:28;;;;;;;7.07;1.92;;;;;;;12.41;100.00;98832.81;5008763;28;20046;-86
2023/03/30 09:56:01;;;;;;;6.30;1.60;;;;;;;12.42;100.00;98789.84;4997111;28;20146;-86
2023/03/30 09:58:35;;;;;;;7.15;2.03;;;;;;;12.62;100.00;98817.19;5011458;28;20050;-86
2023/03/30 10:01:03;;;;;;;7.15;2.17;;;;;;;12.58;100.00;98781.63;5002148;28;20045;-86
2023/03/30 10:03:31;;;;;;;7.57;2.03;;;;;;;13.01;100.00;98811.59;5011248;28;20056;-87
2023/03/30 10:06:07;;;;;;;5.40;1.40;;;;;;;13.07;100.00;98814.59;5003598;28;20050;-86
2023/03/30 10:08:42;;;;;;;7.13;1.73;;;;;;;13.18;100.00;98844.44;5013185;28;20049;-86
2023/03/30 10:11:09;;;;;;;6.55;1.77;;;;;;;13.34;100.00;98828.31;5007446;28;20057;-86
2023/03/30 10:13:40;;;;;;;7.65;2.00;;;;;;;13.01;100.00;98841.31;5012708;28;20050;-86
2023/03/30 10:16:22;;;;;;;9.40;2.05;;;;;;;12.98;100.00;98832.84;5031278;28;20057;-86
2023/03/30 10:18:53;;;;;;;8.43;1.60;;;;;;;13.29;100.00;98845.25;5011218;28;20046;-86
2023/03/30 10:21:25;;;;;;;7.00;1.50;;;;;;;13.23;100.00;98861.50;5011912;28;20046;-86
2023/03/30 10:24:11;;;;;;;5.65;1.50;;;;;;;13.37;100.00;98862.22;4998823;28;20140;-86
2023/03/30 10:26:38;;;;;;;5.30;1.70;;;;;;;13.40;100.00;98862.00;5030935;28;20072;-86
2023/03/30 10:29:06;;;;;;;6.68;1.70;;;;;;;13.50;100.00;98834.03;5030439;28;20495;-86
2023/03/30 10:31:36;;;;;;;7.72;1.60;;;;;;;13.67;100.00;98817.72;5008467;28;20124;-87
2023/03/30 10:34:13;;;;;;;9.40;1.80;;;;;;;13.89;100.00;98850.19;5001561;28;20053;-86
2023/03/30 10:36:39;;;;;;;5.32;1.35;;;;;;;13.70;100.00;98824.53;5015083;28;20053;-86
2023/03/30 10:39:32;;;;;;;3.90;1.30;;;;;;;13.93;100.00;98869.19;5014361;28;20045;-87
2023/03/30 10:42:03;;;;;;;6.55;1.60;;;;;;;13.68;100.00;98821.19;4995228;28;20607;-87
2023/03/30 10:44:35;;;;;;;6.40;1.60;;;;;;;13.85;100.00;98844.31;5008668;28;20582;-86
2023/03/30 10:47:05;;;;;;;5.68;1.52;;;;;;;14.22;100.00;98866.81;5022394;28;20058;-86
2023/03/30 10:50:04;;;;;;;7.78;2.08;;;;;;;14.07;100.00;98857.53;5026615;28;20121;-86
2023/03/30 10:52:36;;;;;;;6.82;1.50;;;;;;;14.10;100.00;98818.63;4987640;28;20050;-86
2023/03/30 10:55:27;;;;;;;7.33;1.97;;;;;;;14.17;100.00;98845.28;5029722;28;20046;-86
2023/03/30 10:58:00;;;;;;;4.88;1.40;;;;;;;14.47;100.00;98877.94;4999827;28;20092;-86
2023/03/30 11:00:55;;;;;;;5.25;1.58;;;;;;;14.42;100.00;98884.41;5014187;28;20064;-87
2023/03/30 11:03:28;;;;;;;7.68;2.03;;;;;;;14.29;100.00;98839.00;5004295;28;20120;-87
2023/03/30 11:06:03;;;;;;;7.88;1.95;;;;;;;14.80;100.00;98859.31;5014856;28;20057;-86
2023/03/30 11:08:38;;;;;;;8.63;1.98;;;;;;;14.78;100.00;98858.63;5030101;28;20089;-87
2023/03/30 11:11:06;;;;;;;8.88;1.67;;;;;;;14.81;100.00;98853.06;5008127;28;20080;-86
2023/03/30 11:13:38;;;;;;;8.50;1.77;;;;;;;14.96;100.00;98863.25;5008532;28;20050;-87
2023/03/30 11:16:38;;;;;;;6.25;1.65;;;;;;;15.42;100.00;98872.47;5005414;28;20082;-85
2023/03/30 11:19:53;;;;;;;5.47;1.40;;;;;;;14.95;100.00;98809.72;5010382;28;20772;-86
2023/03/30 11:22:33;;;;;;;6.63;1.50;;;;;;;15.37;100.00;98878.16;4956254;28;20097;-87
2023/03/30 11:25:02;;;;;;;5.75;1.55;;;;;;;15.47;100.00;98845.69;4999275;28;20054;-86
2023/03/30 11:27:32;;;;;;;4.47;1.20;;;;;;;15.74;100.00;98872.31;5013676;28;20053;-86
2023/03/30 11:30:16;;;;;;;4.93;1.27;;;;;;;15.79;100.00;98852.59;5013126;28;20108;-86
2023/03/30 11:32:51;;;;;;;7.05;1.63;;;;;;;16.34;100.00;98874.00;5008188;28;20057;-86
2023/03/30 11:35:38;;;;;;;6.00;1.27;;;;;;;16.59;100.00;98879.66;5006953;28;20045;-87
2023/03/30 11:38:14;;;;;;;6.03;1.10;;;;;;;16.42;100.00;98860.09;5018038;28;21079;-87
2023/03/30 11:40:45;;;;;;;8.57;1.27;;;;;;;16.17;100.00;98848.31;5013339;28;20109;-86
2023/03/30 11:43:14;;;;;;;4.57;1.10;;;;;;;16.48;100.00;98865.66;5002734;28;20080;-87
2023/03/30 11:45:59;;;;;;;4.18;1.10;;;;;;;16.30;100.00;98859.41;5000564;28;20058;-86
2023/03/30 11:48:57;;;;;;;7.65;1.52;;;;;;;16.29;100.00;98874.44;5006141;28;20141;-87